RJTT METAR and TAF | Updated Today

RJTT METAR

Tokyo Haneda International Airport

Observation time: 24 min. ago

RJTT 291100Z 21012KT 9999 FEW030 24/18 Q1005 NOSIG RMK 1CU030 A2969

Need help? Read our tutorial on how to read METARs or read the parsed version below.

Tokyo Haneda International Airport (RJTT) METAR

  • Weather conditions on Sun, 29 May 2022 11:00:00 +0000 (24 min. ago):
  • Present conditions: Dry
  • Clouds: A few at 914 meters
  • Visibility: Greater than 10 km
  • Wind: 210 degrees at 12 knots
  • Temperature: 24 celsius
  • Dew point: 18 celsius
  • Pressure: 1005 millibars
  • Remarks: 1CU030 A2969


Useful to know...

RJTT TAF

Tokyo Haneda International Airport

TAF RJTT 290505Z 2906/3012 20014KT 9999 FEW030 BECMG 2916/2918 34006KT BECMG 3000/3003 10014KT
Observation time: 6:19 hr. ago
Need help? Read our tutorial on how to read TAFs or read the parsed version below.

Parsed version of TAF for Tokyo Haneda International Airport (RJTT)

  • From 29 May at 06:00 UTC, to day 30 of the month at 12:00 UTC
  • Clouds: A few at 914 meters
  • Visibility: Greater than 10 km
  • Wind: 200 degrees at 14
  • Expected to arise soon, from 29 May at 16:00 UTC, to day 29 of the month at 18:00 UTC
  • Wind: 340 degrees at 6
  • Expected to arise soon, from 30 May at 00:00 UTC, to day 30 of the month at 03:00 UTC
  • Wind: 100 degrees at 14